Time;durP1;ratioP1;P1;durP2;ratioP2;P2;SDS_P1;SDS_P2;PMS_P1;PMS_P2;Temp;Humidity;BMP_temperature;BMP_pressure;BME280_temperature;BME280_humidity;BME280_pressure;Samples;Min_cycle;Max_cycle;Signal;HPM_P1;HPM_P2
2022/03/04 00:02:01;;;;;;;35.63;24.33;;;;;;;;;;5075225;28;20112;-52
2022/03/04 00:04:28;;;;;;;51.30;28.75;;;;;;;;;;5074897;28;20535;-55
2022/03/04 00:06:55;;;;;;;42.38;27.25;;;;;;;;;;5089627;28;20037;-54
2022/03/04 00:09:22;;;;;;;65.38;38.33;;;;;;;;;;5075085;28;20063;-53
2022/03/04 00:11:49;;;;;;;37.08;24.83;;;;;;;;;;5074913;28;20028;-55
2022/03/04 00:14:15;;;;;;;41.55;27.33;;;;;;;;;;5074163;28;20040;-53
2022/03/04 00:16:41;;;;;;;36.50;23.65;;;;;;;;;;5074802;28;20033;-55
2022/03/04 00:19:08;;;;;;;35.65;23.45;;;;;;;;;;5074637;28;20025;-52
2022/03/04 00:21:35;;;;;;;41.40;25.23;;;;;;;;;;5071766;28;20044;-54
2022/03/04 00:24:02;;;;;;;35.05;21.65;;;;;;;;;;5074464;28;20029;-54
2022/03/04 00:26:29;;;;;;;34.95;23.75;;;;;;;;;;5074669;28;20123;-52
2022/03/04 00:28:56;;;;;;;38.72;25.00;;;;;;;;;;5074502;28;20028;-54
2022/03/04 00:31:22;;;;;;;38.80;25.02;;;;;;;;;;5073487;28;20032;-54
2022/03/04 00:33:48;;;;;;;34.95;22.92;;;;;;;;;;5074551;28;20028;-53
2022/03/04 00:36:14;;;;;;;34.97;22.95;;;;;;;;;;5074519;28;20032;-54
2022/03/04 00:38:40;;;;;;;34.55;23.67;;;;;;;;;;5074080;28;20049;-55
2022/03/04 00:41:07;;;;;;;36.20;24.48;;;;;;;;;;5074285;28;20021;-54
2022/03/04 00:43:33;;;;;;;44.33;26.48;;;;;;;;;;5074056;28;20472;-53
2022/03/04 00:45:59;;;;;;;40.53;26.13;;;;;;;;;;5073069;28;20028;-53
2022/03/04 00:48:26;;;;;;;41.40;25.02;;;;;;;;;;5074402;28;20452;-53
2022/03/04 00:50:52;;;;;;;38.40;26.38;;;;;;;;;;5074125;28;20487;-55
2022/03/04 00:53:18;;;;;;;40.15;23.25;;;;;;;;;;5074149;28;20031;-54
2022/03/04 00:55:44;;;;;;;35.63;24.38;;;;;;;;;;5072307;28;20076;-53
2022/03/04 00:58:10;;;;;;;34.25;22.92;;;;;;;;;;5088957;28;20044;-54
2022/03/04 01:00:36;;;;;;;44.60;28.95;;;;;;;;;;5074250;28;20417;-54
2022/03/04 01:03:04;;;;;;;40.55;25.05;;;3.90;93.10;;;;;;5074242;28;20028;-54
2022/03/04 01:05:30;;;;;;;36.70;23.33;;;3.90;93.50;;;;;;5088964;28;20028;-51
2022/03/04 01:07:56;;;;;;;40.95;25.45;;;3.80;93.70;;;;;;5073973;28;20025;-53
2022/03/04 01:10:22;;;;;;;39.75;25.45;;;3.90;94.30;;;;;;5074019;28;20074;-52
2022/03/04 01:12:48;;;;;;;35.20;25.00;;;3.80;96.10;;;;;;5073810;28;20125;-55
2022/03/04 01:15:14;;;;;;;40.95;26.98;;;3.80;99.40;;;;;;5088694;28;20540;-52
2022/03/04 01:17:40;;;;;;;40.05;26.60;;;3.90;99.90;;;;;;5073660;28;20083;-55
2022/03/04 01:20:06;;;;;;;39.10;25.55;;;4.00;99.90;;;;;;5074138;28;20064;-54
2022/03/04 01:22:32;;;;;;;40.80;26.85;;;4.10;99.90;;;;;;5073725;28;20102;-55
2022/03/04 01:24:58;;;;;;;50.33;30.83;;;4.10;99.90;;;;;;5073802;28;20464;-52
2022/03/04 01:27:24;;;;;;;46.00;30.27;;;4.20;99.90;;;;;;5037297;28;20039;-55
2022/03/04 01:29:50;;;;;;;47.58;30.85;;;4.10;99.90;;;;;;5037597;28;20037;-55
2022/03/04 01:32:16;;;;;;;43.72;28.35;;;4.10;99.90;;;;;;5037072;28;20033;-54
2022/03/04 01:34:42;;;;;;;39.22;26.10;;;4.10;99.90;;;;;;5037182;28;20040;-54
2022/03/04 01:37:09;;;;;;;38.35;25.63;;;4.20;99.90;;;;;;5071501;28;20087;-53
2022/03/04 01:39:35;;;;;;;38.42;26.83;;;4.30;99.90;;;;;;5071300;28;20045;-53
2022/03/04 01:42:01;;;;;;;41.28;30.00;;;4.30;99.90;;;;;;5071474;28;20036;-54
2022/03/04 01:44:27;;;;;;;38.92;26.75;;;4.20;99.90;;;;;;5071205;28;20025;-53
2022/03/04 01:46:55;;;;;;;45.58;28.40;;;4.00;99.90;;;;;;5071181;28;20043;-53
2022/03/04 01:49:21;;;;;;;46.85;30.23;;;4.00;99.90;;;;;;5020927;28;20044;-54
2022/03/04 01:51:47;;;;;;;44.97;30.05;;;4.00;99.90;;;;;;5020843;28;20036;-52
2022/03/04 01:54:13;;;;;;;42.53;29.73;;;4.00;99.90;;;;;;5071173;28;20426;-54
2022/03/04 01:56:39;;;;;;;40.90;27.70;;;4.10;99.90;;;;;;5071077;28;20056;-53
2022/03/04 01:59:06;;;;;;;42.25;26.40;;;4.10;99.90;;;;;;5072763;28;20127;-53
2022/03/04 02:01:32;;;;;;;39.17;26.92;;;4.10;99.90;;;;;;5073111;28;20070;-55
2022/03/04 02:03:59;;;;;;;35.45;24.42;;;4.10;99.90;;;;;;5073248;28;20059;-52
2022/03/04 02:06:25;;;;;;;41.33;25.92;;;4.20;99.90;;;;;;5073247;28;20113;-51
2022/03/04 02:08:51;;;;;;;38.88;25.77;;;4.20;99.90;;;;;;5071317;28;20448;-55
2022/03/04 02:11:17;;;;;;;36.17;25.08;;;4.10;99.90;;;;;;5073390;28;20030;-53
2022/03/04 02:13:43;;;;;;;38.38;25.45;;;4.10;99.90;;;;;;5071046;28;20040;-55
2022/03/04 02:16:37;;;;;;;39.28;25.23;;;4.10;99.90;;;;;;5073374;28;20135;-53
2022/03/04 02:19:03;;;;;;;36.00;25.10;;;4.10;99.90;;;;;;5073001;28;20024;-55
2022/03/04 02:21:31;;;;;;;34.72;23.17;;;4.10;99.90;;;;;;5073123;28;20024;-55
2022/03/04 02:23:57;;;;;;;34.65;22.77;;;4.10;99.90;;;;;;5073089;28;20033;-52
2022/03/04 02:26:23;;;;;;;34.42;22.17;;;4.00;99.90;;;;;;5072971;28;20425;-54
2022/03/04 02:28:50;;;;;;;31.38;20.73;;;4.00;99.90;;;;;;5073213;28;20029;-53
2022/03/04 02:31:18;;;;;;;30.20;20.13;;;4.00;99.90;;;;;;5072946;28;20036;-53
2022/03/04 02:33:46;;;;;;;33.83;20.70;;;4.00;99.90;;;;;;5087631;28;20043;-54
2022/03/04 02:36:12;;;;;;;33.70;21.95;;;4.00;99.90;;;;;;5072966;28;20115;-53
2022/03/04 02:38:38;;;;;;;30.42;20.85;;;4.00;99.90;;;;;;5072484;28;20503;-52
2022/03/04 02:41:05;;;;;;;31.98;19.98;;;4.00;99.90;;;;;;5070506;28;20085;-52
2022/03/04 02:43:31;;;;;;;34.63;21.77;;;3.90;99.90;;;;;;5073146;28;20036;-55
2022/03/04 02:45:57;;;;;;;32.05;20.45;;;3.90;99.90;;;;;;5076396;28;20048;-53
2022/03/04 02:48:23;;;;;;;35.70;24.42;;;4.00;99.90;;;;;;5076849;28;20020;-52
2022/03/04 02:50:49;;;;;;;37.83;23.48;;;4.00;99.90;;;;;;5076733;28;20372;-52
2022/03/04 02:53:15;;;;;;;32.05;22.45;;;4.00;99.90;;;;;;5041100;28;20037;-52
2022/03/04 02:55:40;;;;;;;40.03;21.90;;;4.10;99.90;;;;;;5078282;28;20122;-53
2022/03/04 02:58:06;;;;;;;32.88;20.60;;;4.10;99.90;;;;;;5092859;28;20412;-54
2022/03/04 03:00:32;;;;;;;31.70;19.98;;;4.00;99.90;;;;;;5078318;28;20028;-52
2022/03/04 03:02:58;;;;;;;35.78;22.40;;;4.00;99.90;;;;;;5077546;28;20418;-54
2022/03/04 03:05:24;;;;;;;31.20;21.13;;;4.00;99.90;;;;;;5076420;28;20025;-54
2022/03/04 03:07:50;;;;;;;29.75;19.63;;;4.00;99.90;;;;;;5075820;28;20079;-53
2022/03/04 03:10:16;;;;;;;35.20;21.02;;;4.00;99.90;;;;;;5075949;28;20066;-54
2022/03/04 03:12:42;;;;;;;32.03;18.80;;;4.00;99.90;;;;;;5075819;28;20031;-52
2022/03/04 03:15:09;;;;;;;29.05;20.17;;;4.00;99.90;;;;;;5075727;28;20063;-51
2022/03/04 03:17:35;;;;;;;30.65;19.55;;;4.10;99.90;;;;;;5075990;28;20024;-52
2022/03/04 03:20:02;;;;;;;29.92;19.48;;;4.10;99.90;;;;;;5090677;28;20116;-53
2022/03/04 03:22:28;;;;;;;38.42;22.50;;;4.00;99.90;;;;;;5090721;28;20051;-52
2022/03/04 03:24:54;;;;;;;33.70;20.92;;;4.10;99.90;;;;;;5075545;28;20099;-52
2022/03/04 03:27:20;;;;;;;33.95;20.55;;;4.00;99.90;;;;;;5075602;28;20119;-54
2022/03/04 03:29:46;;;;;;;28.52;19.30;;;3.90;99.90;;;;;;5075683;28;20525;-53
2022/03/04 03:32:12;;;;;;;30.00;18.98;;;3.80;99.90;;;;;;5075424;28;20028;-53
2022/03/04 03:34:39;;;;;;;28.63;18.85;;;3.80;99.40;;;;;;5075445;28;20086;-54
2022/03/04 03:37:06;;;;;;;27.75;17.38;;;3.80;99.20;;;;;;5075237;28;20464;-53
2022/03/04 03:39:31;;;;;;;30.08;18.00;;;4.00;99.00;;;;;;5090249;28;20091;-55
2022/03/04 03:41:57;;;;;;;26.77;17.40;;;4.00;98.80;;;;;;5073316;28;20090;-54
2022/03/04 03:44:23;;;;;;;33.97;16.63;;;4.00;98.60;;;;;;5075347;28;20028;-53
2022/03/04 03:46:48;;;;;;;39.13;19.95;;;4.00;98.60;;;;;;5073360;28;20033;-53
2022/03/04 03:49:15;;;;;;;24.58;15.82;;;;;;;;;;5073412;28;20043;-52
2022/03/04 03:51:41;;;;;;;31.02;18.63;;;;;;;;;;5075097;28;20356;-52
2022/03/04 03:54:07;;;;;;;27.92;18.17;;;2.80;99.90;;;;;;5074802;28;20037;-52
2022/03/04 03:56:32;;;;;;;23.77;16.30;;;2.50;96.10;;;;;;5074872;28;20381;-52
2022/03/04 03:58:58;;;;;;;26.00;17.20;;;2.50;99.90;;;;;;5072829;28;20037;-55
2022/03/04 04:01:24;;;;;;;29.13;17.33;;;2.40;96.50;;;;;;5075096;28;20082;-52
2022/03/04 04:03:50;;;;;;;27.58;17.75;;;;;;;;;;5074891;28;20027;-51
2022/03/04 04:06:17;;;;;;;30.85;17.85;;;;;;;;;;5073041;28;20090;-55
2022/03/04 04:08:43;;;;;;;29.30;18.60;;;;;;;;;;5074652;28;20431;-53
2022/03/04 04:11:09;;;;;;;27.63;18.15;;;;;;;;;;5074638;28;20067;-54
2022/03/04 04:13:35;;;;;;;31.70;18.00;;;;;;;;;;5074641;28;20033;-54
2022/03/04 04:16:01;;;;;;;28.40;18.10;;;;;;;;;;5073799;28;20047;-52
2022/03/04 04:18:27;;;;;;;27.10;16.17;;;2.60;99.90;;;;;;5074494;28;20280;-53
2022/03/04 04:20:53;;;;;;;30.25;18.00;;;2.50;99.90;;;;;;5072667;28;20067;-54
2022/03/04 04:23:19;;;;;;;31.38;18.58;;;2.20;97.50;;;;;;5089592;28;20032;-53
2022/03/04 04:25:45;;;;;;;36.28;18.85;;;;;;;;;;5074642;28;20644;-54
2022/03/04 04:28:11;;;;;;;31.83;20.25;;;;;;;;;;5089341;28;20090;-54
2022/03/04 04:30:37;;;;;;;33.40;19.13;;;;;;;;;;5074621;28;20107;-54
2022/03/04 04:33:03;;;;;;;35.47;20.83;;;;;;;;;;5074377;28;20033;-55
2022/03/04 04:35:29;;;;;;;29.55;18.17;;;;;;;;;;5074437;28;20036;-54
2022/03/04 04:37:55;;;;;;;31.60;19.15;;;;;;;;;;5074071;28;20029;-53
2022/03/04 04:40:21;;;;;;;31.60;19.27;;;;;;;;;;5074239;28;20036;-53
2022/03/04 04:42:48;;;;;;;43.33;19.48;;;;;;;;;;5070474;28;20029;-55
2022/03/04 04:45:14;;;;;;;35.60;20.30;;;;;;;;;;5074291;28;20111;-52
2022/03/04 04:47:40;;;;;;;31.13;19.95;;;;;;;;;;5074128;28;20052;-53
2022/03/04 04:50:07;;;;;;;31.80;19.40;;;;;;;;;;5074464;28;20028;-54
2022/03/04 04:52:33;;;;;;;29.60;19.77;;;;;;;;;;5074128;28;20031;-55
2022/03/04 04:54:59;;;;;;;29.00;17.73;;;2.50;99.90;;;;;;5088886;28;20048;-54
2022/03/04 04:57:25;;;;;;;31.05;19.35;;;2.50;99.90;;;;;;5073963;28;20028;-54
2022/03/04 04:59:51;;;;;;;36.08;20.50;;;2.30;97.60;;;;;;5071799;28;20041;-54
2022/03/04 05:02:17;;;;;;;34.58;19.17;;;2.30;98.00;;;;;;5088738;28;20472;-53
2022/03/04 05:04:43;;;;;;;29.00;18.88;;;2.40;97.90;;;;;;5073569;28;20063;-55
2022/03/04 05:07:09;;;;;;;30.88;18.90;;;2.30;98.00;;;;;;5072976;28;20036;-54
2022/03/04 05:09:34;;;;;;;35.00;20.92;;;2.30;98.20;;;;;;5072470;28;20031;-54
2022/03/04 05:12:00;;;;;;;31.98;19.35;;;2.40;98.40;;;;;;5088750;28;20037;-52
2022/03/04 05:14:26;;;;;;;33.85;18.17;;;2.30;98.70;;;;;;5088441;28;20036;-54
2022/03/04 05:16:52;;;;;;;29.55;18.35;;;2.30;98.30;;;;;;5073749;28;20021;-54
2022/03/04 05:19:18;;;;;;;33.00;19.20;;;2.30;98.60;;;;;;5054020;28;20040;-53
2022/03/04 05:21:43;;;;;;;29.48;18.98;;;2.40;98.40;;;;;;5054882;28;20041;-51
2022/03/04 05:24:09;;;;;;;32.78;19.02;;;2.40;98.30;;;;;;5060002;28;20024;-53
2022/03/04 05:26:37;;;;;;;30.67;17.73;;;2.40;98.40;;;;;;5068365;28;20477;-52
2022/03/04 05:29:05;;;;;;;31.05;19.15;;;2.30;98.40;;;;;;5053596;28;20025;-51
2022/03/04 05:31:31;;;;;;;26.80;17.70;;;2.30;98.80;;;;;;5067731;28;20036;-50
2022/03/04 05:33:57;;;;;;;30.25;18.00;;;2.20;98.60;;;;;;5071569;28;20039;-51
2022/03/04 05:36:23;;;;;;;31.75;19.20;;;2.30;98.60;;;;;;5071950;28;20380;-51
2022/03/04 05:38:49;;;;;;;34.45;20.73;;;2.50;98.60;;;;;;5087755;28;20426;-51
2022/03/04 05:41:16;;;;;;;31.05;19.13;;;2.60;99.90;;;;;;5089427;28;20067;-51
2022/03/04 05:43:43;;;;;;;35.00;24.30;;;2.70;99.90;;;;;;5072875;28;20125;-51
2022/03/04 05:46:09;;;;;;;48.40;33.22;;;2.70;99.90;;;;;;5072979;28;20085;-50
2022/03/04 05:48:35;;;;;;;58.90;41.80;;;2.80;99.90;;;;;;5073290;28;20029;-51
2022/03/04 05:51:01;;;;;;;68.35;41.78;;;2.90;99.90;;;;;;5071342;28;20484;-51
2022/03/04 05:53:27;;;;;;;52.28;37.33;;;2.90;98.20;;;;;;5087904;28;20115;-51
2022/03/04 05:55:52;;;;;;;42.47;29.42;;;3.00;97.80;;;;;;5073135;28;20119;-50
2022/03/04 05:58:18;;;;;;;58.10;33.33;;;3.00;97.80;;;;;;5072633;28;20090;-51
2022/03/04 06:00:44;;;;;;;30.55;19.75;;;3.00;97.80;;;;;;5065997;28;20086;-51
2022/03/04 06:03:10;;;;;;;41.92;23.55;;;3.10;97.50;;;;;;5077205;28;20029;-51
2022/03/04 06:05:36;;;;;;;44.22;25.33;;;3.10;97.40;;;;;;5043008;28;20031;-50
2022/03/04 06:08:02;;;;;;;38.00;26.70;;;3.30;97.30;;;;;;5072505;28;20025;-51
2022/03/04 06:10:28;;;;;;;31.95;20.83;;;3.30;97.30;;;;;;5072843;28;20029;-49
2022/03/04 06:12:54;;;;;;;39.10;26.55;;;3.40;97.20;;;;;;5069689;28;20089;-49
2022/03/04 06:15:20;;;;;;;44.88;29.77;;;3.50;96.90;;;;;;5071370;28;20037;-49
2022/03/04 06:17:50;;;;;;;40.45;29.23;;;3.50;97.60;;;;;;5072083;28;20364;-49
2022/03/04 06:20:17;;;;;;;35.78;20.92;;;3.60;97.20;;;;;;5074186;28;20116;-49
2022/03/04 06:22:43;;;;;;;29.63;18.88;;;3.90;97.00;;;;;;5057740;28;20025;-50
2022/03/04 06:25:10;;;;;;;26.52;17.95;;;4.10;96.60;;;;;;5056634;28;20029;-49
2022/03/04 06:27:37;;;;;;;35.00;19.67;;;4.20;96.50;;;;;;5056265;28;20033;-49
2022/03/04 06:30:04;;;;;;;41.00;24.20;;;4.50;96.50;;;;;;5069288;28;20070;-50
2022/03/04 06:32:30;;;;;;;43.65;24.25;;;4.60;96.00;;;;;;5057010;28;20415;-49
2022/03/04 06:34:57;;;;;;;34.70;21.05;;;4.90;96.20;;;;;;5038540;28;20045;-50
2022/03/04 06:37:24;;;;;;;31.08;18.75;;;4.90;95.50;;;;;;5081767;28;20530;-51
2022/03/04 06:39:49;;;;;;;35.58;20.75;;;4.90;95.10;;;;;;5065544;28;20091;-51
2022/03/04 06:42:15;;;;;;;31.35;19.30;;;5.00;95.60;;;;;;5067360;28;20056;-51
2022/03/04 06:44:41;;;;;;;31.17;18.13;;;5.20;95.00;;;;;;5084548;28;20035;-51
2022/03/04 06:47:07;;;;;;;29.27;18.60;;;5.60;94.50;;;;;;5078001;28;20041;-48
2022/03/04 06:49:35;;;;;;;28.05;18.02;;;5.40;94.50;;;;;;5079790;28;20040;-50
2022/03/04 06:52:01;;;;;;;26.42;17.58;;;5.50;94.40;;;;;;5090221;28;20486;-51
2022/03/04 06:54:27;;;;;;;29.35;17.85;;;6.10;94.10;;;;;;5091401;28;20059;-52
2022/03/04 06:56:53;;;;;;;25.33;15.65;;;6.20;93.10;;;;;;5076900;28;20034;-49
2022/03/04 06:59:18;;;;;;;28.70;17.40;;;6.40;92.70;;;;;;5097641;28;20035;-48
2022/03/04 07:01:44;;;;;;;32.05;19.48;;;6.50;92.40;;;;;;5087537;28;20091;-51
2022/03/04 07:04:10;;;;;;;28.33;15.90;;;6.60;92.80;;;;;;5092980;28;20040;-51
2022/03/04 07:06:35;;;;;;;28.40;16.95;;;5.80;92.30;;;;;;5093989;28;20032;-50
2022/03/04 07:09:01;;;;;;;29.77;17.08;;;5.70;93.20;;;;;;5094243;28;20492;-51
2022/03/04 07:11:27;;;;;;;22.98;16.27;;;5.90;93.10;;;;;;5077070;28;20642;-53
2022/03/04 07:13:53;;;;;;;27.13;18.08;;;6.30;93.10;;;;;;5094158;28;20077;-49
2022/03/04 07:16:19;;;;;;;29.00;17.15;;;6.90;92.80;;;;;;5094029;28;20047;-52
2022/03/04 07:18:44;;;;;;;32.50;19.67;;;7.30;92.40;;;;;;5076742;28;20102;-51
2022/03/04 07:21:11;;;;;;;31.90;19.02;;;;;;;;;;5091975;28;20035;-50
2022/03/04 07:23:37;;;;;;;27.55;16.92;;;7.70;99.90;;;;;;5073828;28;20430;-52
2022/03/04 07:26:08;;;;;;;25.45;15.77;;;7.40;91.30;;;;;;5090725;28;20177;-53
2022/03/04 07:28:34;;;;;;;28.00;19.17;;;7.40;91.00;;;;;;5074010;28;20342;-47
2022/03/04 07:31:00;;;;;;;26.88;17.08;;;;;;;;;;5075153;28;20261;-51
2022/03/04 07:33:25;;;;;;;26.67;19.40;;;8.50;90.50;;;;;;5075177;28;20033;-51
2022/03/04 07:35:51;;;;;;;29.13;18.70;;;8.80;90.50;;;;;;5040078;28;20058;-52
2022/03/04 07:38:17;;;;;;;25.25;17.13;;;8.80;90.00;;;;;;5075357;28;20044;-50
2022/03/04 07:40:44;;;;;;;30.23;19.20;;;8.50;89.40;;;;;;5075565;28;20028;-50
2022/03/04 07:43:10;;;;;;;39.28;21.27;;;7.80;89.60;;;;;;5090480;28;20033;-49
2022/03/04 07:45:35;;;;;;;34.08;20.77;;;7.60;90.50;;;;;;5075373;28;20021;-52
2022/03/04 07:48:01;;;;;;;30.02;18.73;;;8.40;90.10;;;;;;5075504;28;20052;-48
2022/03/04 07:50:27;;;;;;;26.48;16.50;;;8.30;90.30;;;;;;5039687;28;20079;-51
2022/03/04 07:52:53;;;;;;;41.10;23.55;;;7.40;90.00;;;;;;5075195;28;20024;-51
2022/03/04 07:55:20;;;;;;;29.25;17.40;;;8.00;90.90;;;;;;5075092;28;20025;-50
2022/03/04 07:57:46;;;;;;;35.53;21.23;;;8.20;90.10;;;;;;5073098;28;20041;-49
2022/03/04 08:00:15;;;;;;;30.02;19.80;;;8.50;90.40;;;;;;5089937;28;20033;-52
2022/03/04 08:02:41;;;;;;;32.63;19.15;;;8.50;89.90;;;;;;5089973;28;20044;-53
2022/03/04 08:05:10;;;;;;;34.20;20.15;;;8.60;89.10;;;;;;5075328;28;20051;-53
2022/03/04 08:07:37;;;;;;;32.08;17.10;;;9.00;90.20;;;;;;5074899;28;20031;-49
2022/03/04 08:10:08;;;;;;;33.20;20.05;;;9.10;88.90;;;;;;5074575;28;20029;-49
2022/03/04 08:12:34;;;;;;;34.15;20.40;;;8.40;89.90;;;;;;5039041;28;20033;-50
2022/03/04 08:15:00;;;;;;;33.05;21.70;;;8.80;90.20;;;;;;5072217;28;20490;-50
2022/03/04 08:17:26;;;;;;;30.55;19.13;;;9.40;89.90;;;;;;5072191;28;20037;-49
2022/03/04 08:19:52;;;;;;;29.30;17.25;;;9.40;89.90;;;;;;5072140;28;20033;-49
2022/03/04 08:22:17;;;;;;;30.88;20.90;;;9.20;88.90;;;;;;5022053;28;20400;-52
2022/03/04 08:24:43;;;;;;;29.77;20.25;;;9.70;88.50;;;;;;5072459;28;20028;-50
2022/03/04 08:27:09;;;;;;;48.85;27.88;;;10.40;88.00;;;;;;5005899;28;20114;-52
2022/03/04 08:29:35;;;;;;;37.35;21.85;;;10.50;87.70;;;;;;5038614;28;20032;-52
2022/03/04 08:32:01;;;;;;;35.10;20.58;;;10.80;86.30;;;;;;5072212;28;20124;-51
2022/03/04 08:34:27;;;;;;;38.30;25.17;;;10.80;86.50;;;;;;5072237;28;20127;-50
2022/03/04 08:36:53;;;;;;;37.55;24.35;;;11.40;86.40;;;;;;5038604;28;20115;-51
2022/03/04 08:39:18;;;;;;;39.55;26.30;;;10.90;85.70;;;;;;5072790;28;20388;-48
2022/03/04 08:41:44;;;;;;;32.80;22.05;;;11.10;86.30;;;;;;5072319;28;20039;-52
2022/03/04 08:44:10;;;;;;;34.63;20.58;;;11.50;85.20;;;;;;5074723;28;20029;-50
2022/03/04 08:46:36;;;;;;;34.38;22.92;;;11.70;84.10;;;;;;5074753;28;20419;-50
2022/03/04 08:49:04;;;;;;;32.58;21.60;;;12.30;84.80;;;;;;5055080;28;20048;-52
2022/03/04 08:51:30;;;;;;;23.67;13.93;;;12.10;83.90;;;;;;5073773;28;20027;-50
2022/03/04 08:53:56;;;;;;;24.73;17.25;;;11.60;83.20;;;;;;5073809;28;20048;-49
2022/03/04 08:56:22;;;;;;;34.00;21.23;;;11.70;83.50;;;;;;5087866;28;20377;-52
2022/03/04 08:58:49;;;;;;;32.55;21.60;;;;;;;;;;5061713;28;20036;-51
2022/03/04 09:01:15;;;;;;;28.52;20.13;;;;;;;;;;5054184;28;20028;-50
2022/03/04 09:03:41;;;;;;;31.88;20.70;;;;;;;;;;5054034;28;20032;-52
2022/03/04 09:06:08;;;;;;;31.88;18.15;;;;;;;;;;5053595;28;20037;-49
2022/03/04 09:08:33;;;;;;;29.05;20.23;;;11.50;99.90;;;;;;5053524;28;20033;-53
2022/03/04 09:11:00;;;;;;;32.70;20.20;;;;;;;;;;5067776;28;20043;-46
2022/03/04 09:13:26;;;;;;;32.33;22.92;;;;;;;;;;5053582;28;20021;-49
2022/03/04 09:15:52;;;;;;;26.00;15.98;;;13.20;97.90;;;;;;5053481;28;20037;-49
2022/03/04 09:18:17;;;;;;;31.98;19.65;;;11.70;86.90;;;;;;5055320;28;20115;-49
2022/03/04 09:20:43;;;;;;;29.10;20.67;;;;;;;;;;5053912;28;20044;-49
2022/03/04 09:23:09;;;;;;;33.50;23.67;;;12.80;81.50;;;;;;5070791;28;20119;-50
2022/03/04 09:25:35;;;;;;;32.70;22.70;;;13.20;82.80;;;;;;5070609;28;20116;-50
2022/03/04 09:28:03;;;;;;;26.58;18.17;;;13.20;79.70;;;;;;5021181;28;20511;-48
2022/03/04 09:30:31;;;;;;;30.25;20.70;;;13.00;79.50;;;;;;5071939;28;20835;-49
2022/03/04 09:32:57;;;;;;;29.00;17.83;;;12.20;79.50;;;;;;5085103;28;20040;-49
2022/03/04 09:35:23;;;;;;;22.15;13.25;;;12.30;79.60;;;;;;5073041;28;20081;-49
2022/03/04 09:37:49;;;;;;;22.23;15.60;;;12.40;80.20;;;;;;5072766;28;20028;-52
2022/03/04 09:40:15;;;;;;;30.95;20.60;;;12.30;81.60;;;;;;5062050;28;20404;-47
2022/03/04 09:42:41;;;;;;;31.60;19.92;;;12.90;79.30;;;;;;5059365;28;20081;-49
2022/03/04 09:45:07;;;;;;;28.92;20.55;;;13.00;81.50;;;;;;5059229;28;20033;-47
2022/03/04 09:47:34;;;;;;;34.30;20.98;;;13.00;80.20;;;;;;5054171;28;20507;-48
2022/03/04 09:50:02;;;;;;;23.40;16.30;;;12.80;80.00;;;;;;5058334;28;20029;-49
2022/03/04 09:52:28;;;;;;;30.35;21.73;;;12.40;79.90;;;;;;5056733;28;20566;-49
2022/03/04 09:54:54;;;;;;;26.00;19.15;;;13.00;78.10;;;;;;5074484;28;20137;-49
2022/03/04 09:57:21;;;;;;;30.48;21.48;;;13.00;77.50;;;;;;5055011;28;20048;-49
2022/03/04 09:59:47;;;;;;;31.05;23.75;;;;;;;;;;5068412;28;20190;-47
2022/03/04 10:02:14;;;;;;;33.38;22.05;;;13.60;78.80;;;;;;5061018;28;20035;-48
2022/03/04 10:04:40;;;;;;;29.98;20.20;;;14.00;78.30;;;;;;5077234;28;20032;-49
2022/03/04 10:07:10;;;;;;;35.28;21.80;;;;;;;;;;5073558;28;20031;-48
2022/03/04 10:09:43;;;;;;;31.85;20.83;;;14.30;82.20;;;;;;5068765;28;20060;-49
2022/03/04 10:12:11;;;;;;;34.60;22.40;;;13.50;79.50;;;;;;5076969;28;20051;-49
2022/03/04 10:15:15;;;;;;;34.97;21.40;;;14.00;81.60;;;;;;5076933;28;20064;-48
2022/03/04 10:17:54;;;;;;;25.83;16.92;;;13.60;91.60;;;;;;5052015;28;20065;-48
2022/03/04 10:20:19;;;;;;;29.15;19.88;;;13.50;86.00;;;;;;5054526;28;20469;-50
2022/03/04 10:22:46;;;;;;;28.35;20.77;;;13.80;76.00;;;;;;5054563;28;20073;-49
2022/03/04 10:25:21;;;;;;;28.63;22.00;;;13.80;78.10;;;;;;5037156;28;20095;-49
2022/03/04 10:27:47;;;;;;;28.13;21.40;;;;;;;;;;5034524;28;20068;-49
2022/03/04 10:30:15;;;;;;;28.65;20.15;;;;;;;;;;5034381;28;20046;-49
2022/03/04 10:32:41;;;;;;;43.00;19.98;;;;;;;;;;5034468;28;20037;-49
2022/03/04 10:35:10;;;;;;;33.30;22.08;;;;;;;;;;5034215;28;20048;-49
2022/03/04 10:37:51;;;;;;;29.05;21.80;;;;;;;;;;5051886;28;20043;-49
2022/03/04 10:40:19;;;;;;;27.00;18.58;;;;;;;;;;5054150;28;20045;-48
2022/03/04 10:42:53;;;;;;;28.08;21.27;;;14.40;73.30;;;;;;5054211;28;20048;-48
2022/03/04 10:45:21;;;;;;;33.47;22.77;;;;;;;;;;5037363;28;20071;-48
2022/03/04 10:47:56;;;;;;;30.45;21.65;;;13.60;75.10;;;;;;5059412;28;20045;-48
2022/03/04 10:50:46;;;;;;;30.60;23.15;;;14.10;74.10;;;;;;5091435;28;20495;-49
2022/03/04 10:53:13;;;;;;;31.65;21.52;;;14.30;75.70;;;;;;5066631;28;20698;-48
2022/03/04 10:55:49;;;;;;;27.55;20.50;;;13.80;76.70;;;;;;5088368;28;20449;-48
2022/03/04 10:58:30;;;;;;;31.98;22.08;;;14.00;76.20;;;;;;5074224;28;20044;-48
2022/03/04 11:00:59;;;;;;;32.10;21.23;;;14.70;75.80;;;;;;5074832;28;20036;-43
2022/03/04 11:03:25;;;;;;;32.33;21.08;;;;;;;;;;5039629;28;20033;-51
2022/03/04 11:05:52;;;;;;;32.05;21.33;;;;;;;;;;5072726;28;20055;-50
2022/03/04 11:08:20;;;;;;;30.23;21.38;;;;;;;;;;5072801;28;20052;-52
2022/03/04 11:10:47;;;;;;;29.60;20.77;;;15.10;91.30;;;;;;5073558;28;20107;-51
2022/03/04 11:13:14;;;;;;;56.15;29.52;;;15.20;92.60;;;;;;5073133;28;20040;-51
2022/03/04 11:15:40;;;;;;;32.95;21.33;;;;;;;;;;5073468;28;20044;-50
2022/03/04 11:18:08;;;;;;;37.10;23.05;;;;;;;;;;5039927;28;20404;-52
2022/03/04 11:20:35;;;;;;;47.97;27.55;;;;;;;;;;5073161;28;20432;-50
2022/03/04 11:23:01;;;;;;;36.55;23.30;;;;;;;;;;5073220;28;20119;-48
2022/03/04 11:25:34;;;;;;;57.25;29.75;;;;;;;;;;5073346;28;20033;-51
2022/03/04 11:28:08;;;;;;;45.00;26.48;;;;;;;;;;5069829;28;20039;-50
2022/03/04 11:31:01;;;;;;;40.33;25.38;;;;;;;;;;5056351;28;20549;-51
2022/03/04 11:33:29;;;;;;;39.50;24.52;;;;;;;;;;5071837;28;20486;-49
2022/03/04 11:35:56;;;;;;;43.42;27.15;;;;;;;;;;5075300;28;20040;-50
2022/03/04 11:38:41;;;;;;;30.90;21.58;;;;;;;;;;5075301;28;20036;-52
2022/03/04 11:41:08;;;;;;;32.40;21.10;;;16.70;78.90;;;;;;5075246;28;20163;-51
2022/03/04 11:43:47;;;;;;;31.15;22.33;;;16.90;72.70;;;;;;5074568;28;20051;-48
2022/03/04 11:46:27;;;;;;;38.33;24.08;;;16.80;72.10;;;;;;5075423;28;20099;-50
2022/03/04 11:49:28;;;;;;;30.58;20.45;;;15.20;72.10;;;;;;5075526;28;20036;-48
2022/03/04 11:52:15;;;;;;;29.55;21.63;;;15.40;73.20;;;;;;5052974;28;20102;-51
2022/03/04 11:54:50;;;;;;;25.10;19.48;;;15.30;71.80;;;;;;5052747;28;20421;-51
2022/03/04 11:57:15;;;;;;;27.13;19.38;;;15.80;71.60;;;;;;5052797;28;20111;-48
2022/03/04 11:59:54;;;;;;;37.65;21.77;;;16.20;71.40;;;;;;5052900;28;20743;-50
2022/03/04 12:02:43;;;;;;;27.65;19.75;;;16.20;71.60;;;;;;5052840;28;20025;-50
2022/03/04 12:05:14;;;;;;;33.10;23.20;;;16.30;70.90;;;;;;5052608;28;20033;-49
2022/03/04 12:07:42;;;;;;;20.95;15.05;;;15.90;71.70;;;;;;5052645;28;20090;-49
2022/03/04 12:10:16;;;;;;;22.48;14.30;;;15.80;68.90;;;;;;5052630;28;20566;-49
2022/03/04 12:13:03;;;;;;;33.67;22.65;;;15.70;69.30;;;;;;5052474;28;20037;-51
2022/03/04 12:15:30;;;;;;;28.70;20.55;;;15.80;71.10;;;;;;5012337;28;20497;-50
2022/03/04 12:18:05;;;;;;;19.95;14.48;;;15.40;69.70;;;;;;5012748;28;20161;-48
2022/03/04 12:20:40;;;;;;;22.70;14.45;;;14.70;68.00;;;;;;5012690;28;20402;-52
2022/03/04 12:23:14;;;;;;;23.35;16.40;;;14.30;68.80;;;;;;5012713;28;20044;-51
2022/03/04 12:25:52;;;;;;;29.77;18.75;;;14.40;67.30;;;;;;5020499;28;20052;-49
2022/03/04 12:28:20;;;;;;;18.65;12.93;;;15.00;68.50;;;;;;5032504;28;20042;-49
2022/03/04 12:31:06;;;;;;;26.67;17.17;;;14.50;67.50;;;;;;5032165;28;20045;-49
2022/03/04 12:33:40;;;;;;;30.25;17.52;;;14.80;69.10;;;;;;5032210;28;20033;-48
2022/03/04 12:36:11;;;;;;;24.30;16.08;;;15.20;69.30;;;;;;5032062;28;20053;-50
2022/03/04 12:38:42;;;;;;;12.80;7.47;;;14.90;68.30;;;;;;5031952;28;20120;-49
2022/03/04 12:41:17;;;;;;;28.17;19.48;;;14.90;67.60;;;;;;5031844;28;20072;-51
2022/03/04 12:43:46;;;;;;;28.50;16.65;;;15.00;69.00;;;;;;5032192;28;20462;-50
2022/03/04 12:46:13;;;;;;;26.60;16.15;;;14.90;68.00;;;;;;5048236;28;20043;-49
2022/03/04 12:48:39;;;;;;;23.45;15.45;;;14.80;67.10;;;;;;5074112;28;20537;-49
2022/03/04 12:51:36;;;;;;;21.95;13.90;;;15.00;67.90;;;;;;5071582;28;20028;-51
2022/03/04 12:54:13;;;;;;;16.88;12.30;;;14.50;67.30;;;;;;5086618;28;20455;-51
2022/03/04 12:56:40;;;;;;;18.95;13.02;;;14.90;65.50;;;;;;5072265;28;20078;-52
2022/03/04 12:59:09;;;;;;;18.00;12.07;;;14.90;65.80;;;;;;5072367;28;20056;-51